createdAt,value
2018-12-11T00:00:43.377Z,99.90
2018-12-11T00:03:12.330Z,99.90
2018-12-11T00:05:41.285Z,99.90
2018-12-11T00:08:10.125Z,99.90
2018-12-11T00:10:38.953Z,99.90
2018-12-11T00:13:07.884Z,99.90
2018-12-11T00:15:36.745Z,99.90
2018-12-11T00:18:05.571Z,99.90
2018-12-11T00:20:34.424Z,99.90
2018-12-11T00:23:03.263Z,99.90
2018-12-11T00:25:32.154Z,99.90
2018-12-11T00:28:01.001Z,99.90
2018-12-11T00:30:29.911Z,99.90
2018-12-11T00:32:58.757Z,99.90
2018-12-11T00:35:27.659Z,99.90
2018-12-11T00:37:56.557Z,99.90
2018-12-11T00:40:25.501Z,99.90
2018-12-11T00:42:54.330Z,99.90
2018-12-11T00:45:23.298Z,99.90
2018-12-11T00:47:52.133Z,99.90
2018-12-11T00:50:21.043Z,99.90
2018-12-11T00:52:49.905Z,99.90
2018-12-11T00:55:18.793Z,99.90
2018-12-11T00:57:47.662Z,99.90
2018-12-11T01:00:16.545Z,99.90
2018-12-11T01:02:45.465Z,99.90
2018-12-11T01:05:14.334Z,99.90
2018-12-11T01:07:43.173Z,99.90
2018-12-11T01:10:12.133Z,99.90
2018-12-11T01:12:41.007Z,99.90
2018-12-11T01:15:10.078Z,99.90
2018-12-11T01:17:38.893Z,99.90
2018-12-11T01:20:07.816Z,99.90
2018-12-11T01:22:36.711Z,99.90
2018-12-11T01:25:05.866Z,99.90
2018-12-11T01:27:34.701Z,99.90
2018-12-11T01:30:03.779Z,99.90
2018-12-11T01:32:32.641Z,99.90
2018-12-11T01:35:01.488Z,99.90
2018-12-11T01:37:30.392Z,99.90
2018-12-11T01:39:59.226Z,99.90
2018-12-11T01:42:28.069Z,99.90
2018-12-11T01:44:56.921Z,99.90
2018-12-11T01:47:25.809Z,99.90
2018-12-11T01:49:54.670Z,99.90
2018-12-11T01:52:23.518Z,99.90
2018-12-11T01:54:52.421Z,99.90
2018-12-11T01:57:21.275Z,99.90
2018-12-11T01:59:50.248Z,99.90
2018-12-11T02:02:19.088Z,99.90
2018-12-11T02:04:47.968Z,99.90
2018-12-11T02:07:17.373Z,99.90
2018-12-11T02:09:46.297Z,99.90
2018-12-11T02:12:15.146Z,99.90
2018-12-11T02:14:44.016Z,99.90
2018-12-11T02:17:12.882Z,99.90
2018-12-11T02:19:41.747Z,99.90
2018-12-11T02:22:10.598Z,99.90
2018-12-11T02:24:39.445Z,99.90
2018-12-11T02:27:08.293Z,99.90
2018-12-11T02:29:37.155Z,99.90
2018-12-11T02:32:06.156Z,99.90
2018-12-11T02:34:35.010Z,99.90
2018-12-11T02:37:03.931Z,99.90
2018-12-11T02:39:32.815Z,99.90
2018-12-11T02:42:01.679Z,99.90
2018-12-11T02:44:30.565Z,99.90
2018-12-11T02:46:59.419Z,99.90
2018-12-11T02:49:28.246Z,99.90
2018-12-11T02:51:57.110Z,99.90
2018-12-11T02:54:25.964Z,99.90
2018-12-11T02:56:54.831Z,99.90
2018-12-11T02:59:23.704Z,99.90
2018-12-11T03:01:52.580Z,99.90
2018-12-11T03:04:21.428Z,99.90
2018-12-11T03:06:50.277Z,99.90
2018-12-11T03:09:19.125Z,99.90
2018-12-11T03:11:48.004Z,99.90
2018-12-11T03:14:17.470Z,99.90
2018-12-11T03:16:46.363Z,99.90
2018-12-11T03:19:15.197Z,99.90
2018-12-11T03:21:44.084Z,99.90
2018-12-11T03:24:12.925Z,99.90
2018-12-11T03:26:41.793Z,99.90
2018-12-11T03:29:10.651Z,99.90
2018-12-11T03:31:39.523Z,99.90
2018-12-11T03:34:08.374Z,99.90
2018-12-11T03:36:37.233Z,99.90
2018-12-11T03:39:06.823Z,99.90
2018-12-11T03:41:35.707Z,99.90
2018-12-11T03:44:04.627Z,99.90
2018-12-11T03:46:33.506Z,99.90
2018-12-11T03:49:02.386Z,99.90
2018-12-11T03:51:31.273Z,99.90
2018-12-11T03:54:00.114Z,99.90
2018-12-11T03:56:28.964Z,99.90
2018-12-11T03:58:57.826Z,99.90
2018-12-11T04:01:26.814Z,99.90
2018-12-11T04:03:55.666Z,99.90
2018-12-11T04:06:24.671Z,99.90
2018-12-11T04:08:53.606Z,99.90
2018-12-11T04:11:22.466Z,99.90
2018-12-11T04:13:51.307Z,99.90
2018-12-11T04:16:21.065Z,99.90
2018-12-11T04:18:57.036Z,99.90
2018-12-11T04:21:28.018Z,99.90
2018-12-11T04:23:58.018Z,99.90
2018-12-11T04:26:26.930Z,99.90
2018-12-11T04:28:57.908Z,99.90
2018-12-11T04:31:29.092Z,99.90
2018-12-11T04:33:58.250Z,99.90
2018-12-11T04:36:28.928Z,99.90
2018-12-11T04:38:59.446Z,99.90
2018-12-11T04:41:29.506Z,99.90
2018-12-11T04:44:00.638Z,99.90
2018-12-11T04:46:30.180Z,99.90
2018-12-11T04:48:59.756Z,99.90
2018-12-11T04:51:29.914Z,99.90
2018-12-11T04:53:58.813Z,99.90
2018-12-11T04:56:27.662Z,99.90
2018-12-11T04:58:56.512Z,99.90
2018-12-11T05:01:25.359Z,99.90
2018-12-11T05:03:54.221Z,99.90
2018-12-11T05:06:23.068Z,99.90
2018-12-11T05:08:51.918Z,99.90
2018-12-11T05:11:20.785Z,99.90
2018-12-11T05:13:49.629Z,99.90
2018-12-11T05:16:18.456Z,99.90
2018-12-11T05:18:47.360Z,99.90
2018-12-11T05:21:16.271Z,99.90
2018-12-11T05:23:45.109Z,99.90
2018-12-11T05:26:14.118Z,99.90
2018-12-11T05:28:43.121Z,99.90
2018-12-11T05:31:12.113Z,99.90
2018-12-11T05:33:40.972Z,99.90
2018-12-11T05:36:10.125Z,99.90
2018-12-11T05:38:38.944Z,99.90
2018-12-11T05:41:07.864Z,99.90
2018-12-11T05:43:36.712Z,99.90
2018-12-11T05:46:05.584Z,99.90
2018-12-11T05:48:34.442Z,99.90
2018-12-11T05:51:03.294Z,99.90
2018-12-11T05:53:32.153Z,99.90
2018-12-11T05:56:01.040Z,99.90
2018-12-11T05:58:29.880Z,99.90
2018-12-11T06:00:58.770Z,99.90
2018-12-11T06:03:27.598Z,99.90
2018-12-11T06:05:56.527Z,99.90
2018-12-11T06:08:25.653Z,99.90
2018-12-11T06:10:54.625Z,99.90
2018-12-11T06:13:23.472Z,99.90
2018-12-11T06:15:52.331Z,99.90
2018-12-11T06:18:21.274Z,99.90
2018-12-11T06:20:50.238Z,99.90
2018-12-11T06:23:19.121Z,99.90
2018-12-11T06:25:48.068Z,99.90
2018-12-11T06:28:16.914Z,99.90
2018-12-11T06:30:45.857Z,99.90
2018-12-11T06:33:14.809Z,99.90
2018-12-11T06:35:43.707Z,99.90
2018-12-11T06:38:12.769Z,99.90
2018-12-11T06:40:41.623Z,99.90
2018-12-11T06:43:10.507Z,99.90
2018-12-11T06:45:39.682Z,99.90
2018-12-11T06:48:08.546Z,99.90
2018-12-11T06:50:37.429Z,99.90
2018-12-11T06:53:06.337Z,99.90
2018-12-11T06:55:35.176Z,99.90
2018-12-11T06:58:04.177Z,99.90
2018-12-11T07:00:33.019Z,99.90
2018-12-11T07:03:01.869Z,99.90
2018-12-11T07:05:30.742Z,99.90
2018-12-11T07:07:59.643Z,99.90
2018-12-11T07:10:28.638Z,99.90
2018-12-11T07:12:57.558Z,99.90
2018-12-11T07:15:26.497Z,99.90
2018-12-11T07:17:55.350Z,99.90
2018-12-11T07:20:24.226Z,99.90
2018-12-11T07:22:53.184Z,99.90
2018-12-11T07:25:22.049Z,99.90
2018-12-11T07:27:50.930Z,99.90
2018-12-11T07:30:19.812Z,99.90
2018-12-11T07:32:48.678Z,99.90
2018-12-11T07:35:17.540Z,99.90
2018-12-11T07:37:46.439Z,99.90
2018-12-11T07:40:15.341Z,99.90
2018-12-11T07:42:44.488Z,99.90
2018-12-11T07:45:13.370Z,99.90
2018-12-11T07:47:42.276Z,99.90
2018-12-11T07:50:11.109Z,99.90
2018-12-11T07:52:40.002Z,99.90
2018-12-11T07:55:08.840Z,99.90
2018-12-11T07:57:37.715Z,99.90
2018-12-11T08:00:07.767Z,99.90
2018-12-11T08:02:36.812Z,99.90
2018-12-11T08:05:06.166Z,99.90
2018-12-11T08:07:35.027Z,99.90
2018-12-11T08:10:05.177Z,99.90
2018-12-11T08:12:34.318Z,99.90
2018-12-11T08:15:03.179Z,99.90
2018-12-11T08:17:32.217Z,99.90
2018-12-11T08:20:01.129Z,99.90
2018-12-11T08:22:30.056Z,99.90
2018-12-11T08:24:58.900Z,99.90
2018-12-11T08:27:27.800Z,99.90
2018-12-11T08:29:56.735Z,99.90
2018-12-11T08:32:25.632Z,99.90
2018-12-11T08:34:54.488Z,99.90
2018-12-11T08:37:23.363Z,99.90
2018-12-11T08:39:52.211Z,99.90
2018-12-11T08:42:21.121Z,99.90
2018-12-11T08:44:51.279Z,99.90
2018-12-11T08:47:20.564Z,99.90
2018-12-11T08:49:49.471Z,99.90
2018-12-11T08:52:18.435Z,99.90
2018-12-11T08:54:47.434Z,99.90
2018-12-11T08:57:16.309Z,99.90
2018-12-11T08:59:45.232Z,99.90
2018-12-11T09:02:14.087Z,99.90
2018-12-11T09:04:42.968Z,99.90
2018-12-11T09:07:11.865Z,99.90
2018-12-11T09:09:40.732Z,99.90
2018-12-11T09:12:09.657Z,99.90
2018-12-11T09:14:38.494Z,99.90
2018-12-11T09:17:10.288Z,99.90
2018-12-11T09:19:39.044Z,99.90
2018-12-11T09:22:07.915Z,99.90
2018-12-11T09:24:36.774Z,99.90
2018-12-11T09:27:06.083Z,99.90
2018-12-11T09:29:35.172Z,99.90
2018-12-11T09:32:04.051Z,99.90
2018-12-11T09:34:33.078Z,99.90
2018-12-11T09:37:02.211Z,99.90
2018-12-11T09:39:31.111Z,99.90
2018-12-11T09:41:59.997Z,99.90
2018-12-11T09:44:28.893Z,99.90
2018-12-11T09:46:57.933Z,99.90
2018-12-11T09:49:26.845Z,99.90
2018-12-11T09:51:56.743Z,99.90
2018-12-11T09:54:25.622Z,99.90
2018-12-11T09:56:54.505Z,99.90
2018-12-11T09:59:23.715Z,99.90
2018-12-11T10:01:53.911Z,99.90
2018-12-11T10:04:22.784Z,99.90
2018-12-11T10:06:51.926Z,99.90
2018-12-11T10:09:20.870Z,99.90
2018-12-11T10:11:49.753Z,99.90
2018-12-11T10:14:19.495Z,99.90
2018-12-11T10:16:48.566Z,99.90
2018-12-11T10:19:20.837Z,99.90
2018-12-11T10:24:50.645Z,99.90
2018-12-11T10:27:19.494Z,99.90
2018-12-11T10:29:48.362Z,99.90
2018-12-11T10:32:17.210Z,99.90
2018-12-11T10:34:46.086Z,99.90
2018-12-11T10:37:14.947Z,99.90
2018-12-11T10:39:43.818Z,99.90
2018-12-11T10:42:12.679Z,99.90
2018-12-11T10:44:41.529Z,99.90
2018-12-11T10:47:10.430Z,99.90
2018-12-11T10:49:39.326Z,99.90
2018-12-11T10:52:08.161Z,99.90
2018-12-11T10:54:37.028Z,99.90
2018-12-11T10:57:06.794Z,99.90
2018-12-11T10:59:35.657Z,99.90
2018-12-11T11:02:10.106Z,99.90
2018-12-11T11:04:38.973Z,99.90
2018-12-11T11:07:07.826Z,99.90
2018-12-11T11:09:36.699Z,99.90
2018-12-11T11:12:05.600Z,99.90
2018-12-11T11:14:34.489Z,99.90
2018-12-11T11:17:04.339Z,99.90
2018-12-11T11:19:33.195Z,99.90
2018-12-11T11:22:02.074Z,99.90
2018-12-11T11:24:30.942Z,99.90
2018-12-11T11:27:00.809Z,99.90
2018-12-11T11:29:29.668Z,99.90
2018-12-11T11:31:58.490Z,99.90
2018-12-11T11:34:27.370Z,99.90
2018-12-11T11:36:56.246Z,99.90
2018-12-11T11:39:25.088Z,99.90
2018-12-11T11:41:54.311Z,99.90
2018-12-11T11:44:23.162Z,99.90
2018-12-11T11:46:52.001Z,99.90
2018-12-11T11:49:20.850Z,99.90
2018-12-11T11:51:49.675Z,99.90
2018-12-11T11:54:18.547Z,99.90
2018-12-11T11:56:47.386Z,99.90
2018-12-11T11:59:16.236Z,99.90
2018-12-11T12:01:45.070Z,99.90
2018-12-11T12:04:13.911Z,99.90
2018-12-11T12:06:42.739Z,99.90
2018-12-11T12:09:11.613Z,99.90
2018-12-11T12:11:40.586Z,99.90
2018-12-11T12:14:09.449Z,99.50
2018-12-11T12:16:38.290Z,99.80
2018-12-11T12:19:07.138Z,99.10
2018-12-11T12:21:36.103Z,98.90
2018-12-11T12:24:05.079Z,98.80
2018-12-11T12:26:34.007Z,98.70
2018-12-11T12:29:02.938Z,98.30
2018-12-11T12:31:31.923Z,98.20
2018-12-11T12:34:00.761Z,98.30
2018-12-11T12:36:29.621Z,98.50
2018-12-11T12:38:58.469Z,98.50
2018-12-11T12:41:27.349Z,98.40
2018-12-11T12:43:56.185Z,97.80
2018-12-11T12:46:26.240Z,98.30
2018-12-11T12:48:55.215Z,98.50
2018-12-11T12:51:24.127Z,98.00
2018-12-11T12:53:52.978Z,98.00
2018-12-11T12:56:21.834Z,98.50
2018-12-11T12:58:50.689Z,98.90
2018-12-11T13:01:19.638Z,97.40
2018-12-11T13:03:48.785Z,98.00
2018-12-11T13:06:19.566Z,96.70
2018-12-11T13:08:54.358Z,97.60
2018-12-11T13:11:26.613Z,97.00
2018-12-11T13:13:56.326Z,96.20
2018-12-11T13:16:26.270Z,96.10
2018-12-11T13:18:55.282Z,96.10
2018-12-11T13:21:25.167Z,96.60
2018-12-11T13:23:54.060Z,95.80
2018-12-11T13:26:24.793Z,95.90
2018-12-11T13:28:53.881Z,95.40
2018-12-11T13:31:22.797Z,95.80
2018-12-11T13:33:51.690Z,96.00
2018-12-11T13:36:22.703Z,96.60
2018-12-11T13:38:51.674Z,96.40
2018-12-11T13:41:21.801Z,96.70
2018-12-11T13:44:03.277Z,96.10
2018-12-11T13:46:32.493Z,96.20
2018-12-11T13:49:01.423Z,96.30
2018-12-11T13:51:30.246Z,96.50
2018-12-11T13:54:01.465Z,96.50
2018-12-11T13:56:31.663Z,96.40
2018-12-11T13:59:00.510Z,96.30
2018-12-11T14:01:36.101Z,96.10
2018-12-11T14:04:06.489Z,95.90
2018-12-11T14:06:36.687Z,96.00
2018-12-11T14:09:12.890Z,95.90
2018-12-11T14:11:48.615Z,95.90
2018-12-11T14:14:19.564Z,95.20
2018-12-11T14:16:52.431Z,95.00
2018-12-11T14:19:21.547Z,96.70
2018-12-11T16:50:28.216Z,99.90
2018-12-11T16:52:57.060Z,99.90
2018-12-11T16:55:28.385Z,99.90
2018-12-11T16:57:57.396Z,99.90
2018-12-11T17:00:26.276Z,99.90
2018-12-11T17:02:55.142Z,99.90
2018-12-11T17:05:23.999Z,99.90
2018-12-11T17:07:52.886Z,99.90
2018-12-11T17:10:21.768Z,99.90
2018-12-11T17:12:50.682Z,99.90
2018-12-11T17:15:23.891Z,99.90
2018-12-11T17:17:52.768Z,99.90
2018-12-11T17:20:21.655Z,99.90
2018-12-11T17:22:51.549Z,99.90
2018-12-11T17:25:20.404Z,99.90
2018-12-11T17:27:49.334Z,99.90
2018-12-11T17:30:18.415Z,99.90
2018-12-11T17:32:47.385Z,99.90
2018-12-11T17:35:16.383Z,99.90
2018-12-11T17:37:45.303Z,99.90
2018-12-11T17:40:14.317Z,99.90
2018-12-11T17:42:43.239Z,99.90
2018-12-11T17:45:12.119Z,99.90
2018-12-11T17:47:41.032Z,99.90
2018-12-11T17:50:09.992Z,99.90
2018-12-11T17:52:39.478Z,99.90
2018-12-11T17:55:08.366Z,99.90
2018-12-11T17:57:37.222Z,99.90
2018-12-11T18:00:07.113Z,99.90
2018-12-11T18:02:38.166Z,99.90
2018-12-11T18:05:07.387Z,99.90
2018-12-11T18:07:36.238Z,99.90
2018-12-11T18:10:07.086Z,99.90
2018-12-11T18:12:35.976Z,99.90
2018-12-11T18:15:05.984Z,99.90
2018-12-11T18:17:34.967Z,99.90
2018-12-11T18:20:04.592Z,99.90
2018-12-11T18:22:33.509Z,99.90
2018-12-11T18:25:02.373Z,99.90
2018-12-11T18:27:32.401Z,99.90
2018-12-11T18:30:01.214Z,99.90
2018-12-11T18:32:30.143Z,99.90
2018-12-11T18:34:59.469Z,99.90
2018-12-11T18:37:28.485Z,99.90
2018-12-11T18:39:57.404Z,99.90
2018-12-11T18:42:27.580Z,99.90
2018-12-11T18:45:03.045Z,99.90
2018-12-11T18:47:28.294Z,99.90
2018-12-11T18:49:57.317Z,99.90
2018-12-11T18:52:26.270Z,99.90
2018-12-11T18:54:55.149Z,99.90
2018-12-11T18:57:24.048Z,99.90
2018-12-11T18:59:53.319Z,99.90
2018-12-11T19:02:22.183Z,99.90
2018-12-11T19:04:51.081Z,99.90
2018-12-11T19:07:21.053Z,99.90
2018-12-11T19:09:49.943Z,99.90
2018-12-11T19:12:18.850Z,99.90
2018-12-11T19:14:47.856Z,99.90
2018-12-11T19:17:16.759Z,99.90
2018-12-11T19:19:46.060Z,99.90
2018-12-11T19:22:15.214Z,99.90
2018-12-11T19:24:48.061Z,99.90
2018-12-11T19:27:16.970Z,99.90
2018-12-11T19:29:45.849Z,99.90
2018-12-11T19:32:14.733Z,99.90
2018-12-11T19:34:43.697Z,99.90
2018-12-11T19:37:13.113Z,99.90
2018-12-11T19:39:42.016Z,99.90
2018-12-11T19:42:10.948Z,99.90
2018-12-11T19:44:39.816Z,99.90
2018-12-11T19:47:08.975Z,99.90
2018-12-11T19:49:37.910Z,99.90
2018-12-11T19:52:06.746Z,99.90
2018-12-11T19:54:35.663Z,99.90
2018-12-11T19:57:07.654Z,99.90
2018-12-11T19:59:36.965Z,99.90
2018-12-11T20:02:11.550Z,99.90
2018-12-11T20:04:44.756Z,99.90
2018-12-11T20:07:13.697Z,99.90
2018-12-11T20:09:50.206Z,99.90
2018-12-11T20:12:21.453Z,99.90
2018-12-11T20:14:52.043Z,99.90
2018-12-11T20:17:23.994Z,99.90
2018-12-11T20:19:55.004Z,99.90
2018-12-11T20:22:26.055Z,99.90
2018-12-11T20:24:55.346Z,99.90
2018-12-11T20:27:26.140Z,99.90
2018-12-11T20:29:55.053Z,99.90
2018-12-11T20:32:27.154Z,99.90
2018-12-11T20:34:56.075Z,99.90
2018-12-11T20:37:26.021Z,99.90
2018-12-11T20:39:55.247Z,99.90
2018-12-11T20:42:24.126Z,99.90
2018-12-11T20:44:54.463Z,99.90
2018-12-11T20:47:29.670Z,99.90
2018-12-11T20:50:00.355Z,99.90
2018-12-11T20:52:32.820Z,99.90
2018-12-11T20:55:04.182Z,99.90
2018-12-11T20:57:33.099Z,99.90
2018-12-11T21:00:02.162Z,99.90
2018-12-11T21:02:32.678Z,99.90
2018-12-11T21:05:01.999Z,99.90
2018-12-11T21:07:30.874Z,99.90
2018-12-11T21:10:23.275Z,99.90
2018-12-11T21:12:56.015Z,99.90
2018-12-11T21:15:26.544Z,99.90
2018-12-11T21:17:59.625Z,99.90
2018-12-11T21:20:28.526Z,99.90
2018-12-11T21:22:57.413Z,99.90
2018-12-11T21:25:26.525Z,99.90
2018-12-11T21:27:55.446Z,99.90
2018-12-11T21:30:24.317Z,99.90
2018-12-11T21:32:54.216Z,99.90
2018-12-11T21:35:23.128Z,99.90
2018-12-11T21:37:52.019Z,99.90
2018-12-11T21:40:21.446Z,99.90
2018-12-11T21:42:50.358Z,99.90
2018-12-11T21:45:20.243Z,99.90
2018-12-11T21:47:50.179Z,99.90
2018-12-11T21:51:23.534Z,99.90
2018-12-11T21:54:07.495Z,99.90
2018-12-11T21:56:36.372Z,99.90
2018-12-11T21:59:05.448Z,99.90
2018-12-11T22:01:34.422Z,99.90
2018-12-11T22:06:46.927Z,99.90
2018-12-11T22:09:16.014Z,99.90
2018-12-11T22:11:44.869Z,99.90
2018-12-11T22:14:14.129Z,99.90
2018-12-11T22:16:43.235Z,99.90
2018-12-11T22:19:12.089Z,99.90
2018-12-11T22:21:40.972Z,99.90
2018-12-11T22:24:09.857Z,99.90
2018-12-11T22:26:38.750Z,99.90
2018-12-11T22:29:07.601Z,99.90
2018-12-11T22:31:36.491Z,99.90
2018-12-11T22:34:05.330Z,99.90
2018-12-11T22:36:34.221Z,99.90
2018-12-11T22:39:04.224Z,99.90
2018-12-11T22:41:33.163Z,99.90
2018-12-11T22:44:02.006Z,99.90
2018-12-11T22:46:30.868Z,99.90
2018-12-11T22:48:59.854Z,99.90
2018-12-11T22:51:29.057Z,99.90
2018-12-11T22:53:58.008Z,99.90
2018-12-11T22:56:26.830Z,99.90
2018-12-11T22:58:55.678Z,99.90
2018-12-11T23:01:24.834Z,99.90
2018-12-11T23:03:53.762Z,99.90
2018-12-11T23:06:22.715Z,99.90
2018-12-11T23:08:51.830Z,99.90
2018-12-11T23:11:20.830Z,99.90
2018-12-11T23:13:49.813Z,99.90
2018-12-11T23:16:18.763Z,99.90
2018-12-11T23:18:47.688Z,99.90
2018-12-11T23:21:16.802Z,99.90
2018-12-11T23:23:45.861Z,99.90
2018-12-11T23:26:15.083Z,99.90
2018-12-11T23:28:43.926Z,99.90
2018-12-11T23:31:12.779Z,99.90
2018-12-11T23:33:41.650Z,99.90
2018-12-11T23:36:10.518Z,99.90
2018-12-11T23:38:39.390Z,99.90
2018-12-11T23:41:08.273Z,99.90
2018-12-11T23:43:37.117Z,99.90
2018-12-11T23:46:05.962Z,99.90
2018-12-11T23:48:34.798Z,99.90
2018-12-11T23:51:03.677Z,99.90
2018-12-11T23:53:32.730Z,99.90
2018-12-11T23:56:01.596Z,99.90
2018-12-11T23:58:30.462Z,99.90
